Time;durP1;ratioP1;P1;durP2;ratioP2;P2;SDS_P1;SDS_P2;PMS_P1;PMS_P2;Temp;Humidity;BMP_temperature;BMP_pressure;BME280_temperature;BME280_humidity;BME280_pressure;Samples;Min_cycle;Max_cycle;Signal;HPM_P1;HPM_P2
2021/01/02 00:02:25;;;;;;;19.20;7.20;;;;;;;0.82;100.00;95048.91;10535907;28;20086;-82
2021/01/02 00:07:43;;;;;;;16.08;7.88;;;;;;;0.72;100.00;95045.03;10551011;28;20092;-82
2021/01/02 00:12:52;;;;;;;18.43;8.10;;;;;;;0.72;100.00;95058.28;10534824;28;20032;-81
2021/01/02 00:18:36;;;;;;;13.85;7.85;;;;;;;0.58;100.00;95065.38;10530569;28;20052;-83
2021/01/02 00:24:04;;;;;;;14.93;7.82;;;;;;;0.65;100.00;95074.13;10487160;28;20036;-83
2021/01/02 00:29:10;;;;;;;12.82;6.75;;;;;;;0.57;100.00;95080.41;10541143;28;20024;-83
2021/01/02 00:34:29;;;;;;;12.90;6.30;;;;;;;0.57;100.00;95092.84;10543043;28;20390;-83
2021/01/02 00:39:36;;;;;;;9.32;6.00;;;;;;;0.50;100.00;95096.31;10558602;28;20190;-83
2021/01/02 00:44:40;;;;;;;10.82;6.68;;;;;;;0.40;100.00;95084.47;10536317;28;20055;-82
2021/01/02 00:49:43;;;;;;;16.65;7.32;;;;;;;0.35;100.00;95085.09;10532277;28;20097;-83
2021/01/02 00:54:55;;;;;;;12.75;7.53;;;;;;;0.40;100.00;95084.47;10514273;28;20027;-83
2021/01/02 01:00:07;;;;;;;13.35;9.25;;;;;;;0.40;100.00;95087.13;10534102;28;20391;-83
2021/01/02 01:05:08;;;;;;;13.65;8.30;;;;;;;0.44;100.00;95089.16;10532374;28;20024;-83
2021/01/02 01:10:10;;;;;;;18.85;7.53;;;;;;;0.55;100.00;95084.31;10530778;28;20021;-83
2021/01/02 01:15:11;;;;;;;12.48;7.00;;;;;;;0.58;100.00;95078.59;10531472;28;20031;-82
2021/01/02 01:20:16;;;;;;;14.10;7.72;;;;;;;0.56;100.00;95076.16;10530399;28;20044;-83
2021/01/02 01:25:39;;;;;;;11.48;7.22;;;;;;;0.54;100.00;95088.75;10530902;28;20028;-84
2021/01/02 01:30:40;;;;;;;12.63;6.70;;;;;;;0.54;100.00;95091.41;10533120;28;20107;-83
2021/01/02 01:35:43;;;;;;;10.93;5.78;;;;;;;0.59;100.00;95093.47;10535885;28;20062;-83
2021/01/02 01:40:44;;;;;;;10.57;6.80;;;;;;;0.53;100.00;95099.53;10513421;28;20074;-82
2021/01/02 01:46:14;;;;;;;9.93;5.32;;;;;;;0.56;100.00;95086.75;10533304;28;20055;-82
2021/01/02 01:51:27;;;;;;;11.18;5.50;;;;;;;0.54;100.00;95088.75;10537744;28;20078;-83
2021/01/02 01:56:34;;;;;;;11.05;6.18;;;;;;;0.43;100.00;95097.28;10537891;28;20028;-83
2021/01/02 02:01:37;;;;;;;9.40;4.93;;;;;;;0.47;100.00;95099.31;10537835;28;20027;-83
2021/01/02 02:06:44;;;;;;;13.18;6.65;;;;;;;0.46;100.00;95108.28;10537891;28;20032;-83
2021/01/02 02:12:01;;;;;;;8.27;5.57;;;;;;;0.35;100.00;95100.94;10516610;28;20509;-83
2021/01/02 02:17:05;;;;;;;10.82;7.03;;;;;;;0.30;100.00;95098.88;10515508;28;20024;-83
2021/01/02 02:22:15;;;;;;;12.68;6.75;;;;;;;0.38;100.00;95091.78;10528408;28;20056;-80
2021/01/02 02:27:22;;;;;;;9.48;5.82;;;;;;;0.39;100.00;95096.06;10531830;28;20026;-80
2021/01/02 02:32:27;;;;;;;10.82;7.03;;;;;;;0.31;100.00;95091.78;10535177;28;20024;-80
2021/01/02 02:37:27;;;;;;;11.50;6.13;;;;;;;0.28;100.00;95100.09;10536993;28;20082;-80
2021/01/02 02:42:30;;;;;;;13.47;6.80;;;;;;;0.24;100.00;95089.13;10533947;28;20069;-79
2021/01/02 02:47:34;;;;;;;14.48;7.70;;;;;;;0.23;100.00;95098.06;10517203;28;20701;-79
2021/01/02 02:52:37;;;;;;;11.88;6.72;;;;;;;0.20;100.00;95095.03;10519241;28;20022;-79
2021/01/02 02:57:46;;;;;;;11.55;7.55;;;;;;;0.07;100.00;95093.13;10537689;28;20020;-80
2021/01/02 03:02:48;;;;;;;9.82;6.28;;;;;;;0.18;100.00;95087.25;10519228;28;20474;-79
2021/01/02 03:07:50;;;;;;;12.07;7.05;;;;;;;0.11;100.00;95087.28;10519251;28;20086;-79
2021/01/02 03:12:52;;;;;;;8.02;4.70;;;;;;;0.04;100.00;95090.88;10536893;28;20466;-79
2021/01/02 03:17:54;;;;;;;14.32;7.50;;;;;;;-0.06;100.00;95094.72;10536935;28;20109;-79
2021/01/02 03:22:54;;;;;;;14.02;5.97;;;;;;;-0.07;100.00;95108.97;10537331;28;20020;-79
2021/01/02 03:27:56;;;;;;;9.20;7.10;;;;;;;-0.16;100.00;95107.47;10536817;28;20028;-78
2021/01/02 03:32:56;;;;;;;9.80;5.95;;;;;;;-0.26;100.00;95107.03;10518490;28;20035;-78
2021/01/02 03:37:57;;;;;;;9.33;7.27;;;;;;;-0.21;100.00;95118.66;10537174;28;20020;-78
2021/01/02 03:42:57;;;;;;;12.07;7.45;;;;;;;-0.21;100.00;95123.94;10536775;28;20347;-78
2021/01/02 03:47:58;;;;;;;14.00;6.73;;;;;;;-0.16;100.00;95125.97;10536529;28;20020;-78
2021/01/02 03:52:58;;;;;;;11.47;5.60;;;;;;;-0.29;100.00;95116.16;10536173;28;20031;-78
2021/01/02 03:57:58;;;;;;;15.05;7.72;;;;;;;-0.36;100.00;95126.69;10536034;28;20032;-77
2021/01/02 04:02:59;;;;;;;12.17;7.10;;;;;;;-0.27;100.00;95132.63;10539987;28;20024;-77
2021/01/02 04:08:00;;;;;;;10.50;6.15;;;;;;;-0.33;100.00;95133.41;10544098;28;20468;-78
2021/01/02 04:13:01;;;;;;;11.85;8.13;;;;;;;-0.49;100.00;95134.53;10544064;28;20024;-79
2021/01/02 04:18:01;;;;;;;6.37;4.93;;;;;;;-0.66;100.00;95123.47;10525630;28;20059;-78
2021/01/02 04:23:01;;;;;;;8.60;6.18;;;;;;;-0.70;100.00;95124.84;10543780;28;20349;-79
2021/01/02 04:28:02;;;;;;;8.40;5.82;;;;;;;-0.66;100.00;95134.03;10558625;28;20024;-79
2021/01/02 04:33:03;;;;;;;8.68;5.85;;;;;;;-0.58;100.00;95138.34;10555009;28;20039;-79
2021/01/02 04:38:03;;;;;;;9.75;4.70;;;;;;;-0.55;100.00;95144.03;10525256;28;20024;-79
2021/01/02 04:43:04;;;;;;;7.32;5.63;;;;;;;-0.54;100.00;95148.31;10543066;28;20024;-78
2021/01/02 04:48:06;;;;;;;10.30;5.50;;;;;;;-0.57;100.00;95148.72;10522969;28;20058;-78
2021/01/02 04:53:06;;;;;;;7.88;4.97;;;;;;;-0.56;100.00;95163.56;10541491;28;20286;-77
2021/01/02 04:58:12;;;;;;;8.82;5.38;;;;;;;-0.58;100.00;95165.56;10542130;28;20024;-78
2021/01/02 05:03:12;;;;;;;7.03;6.18;;;;;;;-0.59;100.00;95165.75;10523564;28;20089;-78
2021/01/02 05:08:13;;;;;;;15.52;5.35;;;;;;;-0.54;100.00;95179.19;10541617;28;20376;-78
2021/01/02 05:13:13;;;;;;;7.10;5.83;;;;;;;-0.54;100.00;95181.84;10541329;28;20028;-78
2021/01/02 05:18:13;;;;;;;7.13;5.20;;;;;;;-0.67;100.00;95179.09;10540733;28;20309;-78
2021/01/02 05:23:14;;;;;;;11.25;6.57;;;;;;;-0.60;100.00;95178.13;10523128;28;20645;-79
2021/01/02 05:28:17;;;;;;;11.60;8.20;;;;;;;-0.54;100.00;95190.56;10540874;28;20016;-79
2021/01/02 05:33:18;;;;;;;11.60;6.70;;;;;;;-0.60;100.00;95196.63;10522710;28;20074;-79
2021/01/02 05:38:24;;;;;;;8.20;5.03;;;;;;;-0.60;100.00;95195.78;10540435;28;20549;-79
2021/01/02 05:43:28;;;;;;;9.52;7.22;;;;;;;-0.69;100.00;95201.19;10540334;28;20024;-78
2021/01/02 05:48:28;;;;;;;6.82;5.00;;;;;;;-0.67;100.00;95202.84;10540079;28;20104;-79
2021/01/02 05:53:32;;;;;;;10.50;6.85;;;;;;;-0.67;100.00;95213.41;10521565;28;20219;-79
2021/01/02 05:58:43;;;;;;;9.57;4.70;;;;;;;-0.70;100.00;95214.59;10521239;28;20054;-79
2021/01/02 06:03:45;;;;;;;10.63;5.18;;;;;;;-0.77;100.00;95217.16;10512634;28;20027;-79
2021/01/02 06:08:48;;;;;;;6.35;4.45;;;;;;;-0.60;100.00;95223.03;10550236;28;20028;-79
2021/01/02 06:13:53;;;;;;;11.60;5.90;;;;;;;-0.46;100.00;95223.09;10519577;28;20478;-79
2021/01/02 06:18:53;;;;;;;9.35;6.07;;;;;;;-0.57;100.00;95230.56;10538491;28;20119;-79
2021/01/02 06:23:54;;;;;;;8.73;6.43;;;;;;;-0.76;100.00;95236.47;10537741;28;20546;-79
2021/01/02 06:28:54;;;;;;;16.05;9.52;;;;;;;-0.92;100.00;95235.75;10520162;28;20312;-79
2021/01/02 06:33:55;;;;;;;21.63;10.30;;;;;;;-0.82;100.00;95245.13;10537459;28;20020;-80
2021/01/02 06:39:31;;;;;;;16.43;9.37;;;;;;;-0.63;100.00;95238.41;10511876;28;20757;-79
2021/01/02 06:44:43;;;;;;;16.48;8.90;;;;;;;-0.45;100.00;95241.38;10532096;28;20269;-79
2021/01/02 06:49:43;;;;;;;10.48;6.85;;;;;;;-0.43;100.00;95244.66;10517827;28;20023;-80
2021/01/02 06:54:44;;;;;;;9.68;5.45;;;;;;;-0.54;100.00;95238.09;10537297;28;20475;-80
2021/01/02 06:59:44;;;;;;;11.20;5.93;;;;;;;-0.47;100.00;95245.25;10532621;28;20070;-76
2021/01/02 07:04:44;;;;;;;19.80;8.90;;;;;;;-0.50;100.00;95257.00;10511172;28;20032;-76
2021/01/02 07:09:45;;;;;;;24.50;13.43;;;;;;;-0.29;100.00;95263.22;10520743;28;20336;-76
2021/01/02 07:14:45;;;;;;;24.67;12.63;;;;;;;-0.14;100.00;95266.63;10524828;28;20027;-76
2021/01/02 07:19:47;;;;;;;17.63;9.80;;;;;;;0.04;100.00;95258.16;10486733;28;20299;-76
2021/01/02 07:24:52;;;;;;;15.57;9.73;;;;;;;0.04;100.00;95265.28;10513735;28;20780;-76
2021/01/02 07:29:54;;;;;;;15.10;9.88;;;;;;;0.14;100.00;95263.94;10521451;28;20035;-76
2021/01/02 07:35:00;;;;;;;14.60;9.70;;;;;;;0.22;100.00;95268.25;10523503;28;20108;-76
2021/01/02 07:40:06;;;;;;;19.65;11.98;;;;;;;0.24;100.00;95268.88;10531226;28;20116;-77
2021/01/02 07:45:11;;;;;;;22.33;13.02;;;;;;;0.46;100.00;95274.88;10499488;28;20088;-77
2021/01/02 07:50:14;;;;;;;24.85;13.73;;;;;;;0.66;100.00;95271.50;10501395;28;20028;-76
2021/01/02 07:55:15;;;;;;;31.00;15.90;;;;;;;0.92;100.00;95269.97;10521346;28;20035;-76
2021/01/02 08:00:17;;;;;;;26.08;12.73;;;;;;;1.07;100.00;95257.38;10482307;28;20024;-76
2021/01/02 08:05:20;;;;;;;22.77;11.73;;;;;;;1.48;100.00;95269.66;10527223;28;20035;-76
2021/01/02 08:10:21;;;;;;;23.00;12.27;;;;;;;2.16;100.00;95265.94;10533379;28;20028;-76
2021/01/02 08:15:35;;;;;;;19.02;11.63;;;;;;;2.82;100.00;95261.44;10534068;28;20027;-76
2021/01/02 08:20:37;;;;;;;30.67;12.57;;;;;;;3.32;100.00;95262.59;10515797;28;20113;-76
2021/01/02 08:25:38;;;;;;;17.02;10.73;;;;;;;3.69;100.00;95252.91;10533131;28;20103;-76
2021/01/02 08:30:39;;;;;;;18.92;9.32;;;;;;;4.29;100.00;95256.88;10532681;28;20780;-76
2021/01/02 08:35:42;;;;;;;28.17;10.48;;;;;;;4.84;100.00;95241.94;10531702;28;20081;-76
2021/01/02 08:40:46;;;;;;;17.33;9.95;;;;;;;5.92;100.00;95236.69;10513311;28;20018;-75
2021/01/02 08:45:47;;;;;;;19.70;10.60;;;;;;;6.14;100.00;95228.94;10530011;28;20028;-75
2021/01/02 08:50:47;;;;;;;18.92;10.50;;;;;;;6.10;95.74;95222.44;10530392;28;20028;-75
2021/01/02 08:55:48;;;;;;;17.57;9.63;;;;;;;6.39;99.56;95222.50;10530734;28;20025;-76
2021/01/02 09:00:48;;;;;;;22.55;12.13;;;;;;;6.66;95.65;95220.94;10530259;28;20267;-76
2021/01/02 09:05:48;;;;;;;15.70;10.33;;;;;;;6.87;92.03;95229.38;10530607;28;20027;-76
2021/01/02 09:10:56;;;;;;;16.83;10.03;;;;;;;7.15;87.16;95225.91;10529673;28;20846;-76
2021/01/02 09:16:14;;;;;;;22.50;10.00;;;;;;;7.87;83.18;95216.41;10529324;28;20024;-76
2021/01/02 09:21:19;;;;;;;19.27;10.23;;;;;;;8.22;75.99;95214.53;10530568;28;20044;-77
2021/01/02 09:26:33;;;;;;;17.38;8.95;;;;;;;8.50;74.42;95216.28;10529565;28;20032;-77
2021/01/02 09:31:34;;;;;;;18.15;11.23;;;;;;;8.15;77.34;95205.84;10528933;28;20051;-77
2021/01/02 09:36:35;;;;;;;27.35;13.27;;;;;;;8.08;77.21;95205.19;10528667;28;20031;-77
2021/01/02 09:41:36;;;;;;;26.95;14.32;;;;;;;7.89;79.27;95204.66;10527739;28;20020;-76
2021/01/02 09:46:36;;;;;;;29.77;15.55;;;;;;;8.43;74.52;95198.72;10528664;28;20036;-76
2021/01/02 09:51:36;;;;;;;37.43;15.60;;;;;;;8.94;71.71;95185.97;10510972;28;20042;-77
2021/01/02 09:56:44;;;;;;;35.90;13.80;;;;;;;10.59;60.37;95185.41;10527433;28;20102;-77
2021/01/02 10:01:44;;;;;;;31.70;12.70;;;;;;;13.30;48.42;95154.25;10508599;28;20277;-77
2021/01/02 10:06:44;;;;;;;21.50;10.73;;;;;;;16.09;41.43;95149.97;10527105;28;20039;-77
2021/01/02 10:11:45;;;;;;;25.45;10.07;;;;;;;18.67;36.34;95136.13;10527823;28;20119;-77
2021/01/02 10:16:45;;;;;;;24.93;9.73;;;;;;;19.75;34.44;95122.06;10526844;28;20032;-76
2021/01/02 10:21:49;;;;;;;19.83;9.57;;;;;;;20.38;31.97;95124.38;10525716;28;20051;-76
2021/01/02 10:26:49;;;;;;;17.55;8.18;;;;;;;21.84;30.86;95105.84;10525903;28;20365;-77
2021/01/02 10:31:50;;;;;;;12.25;7.07;;;;;;;22.63;27.62;95097.59;10526206;28;20036;-77
2021/01/02 10:36:50;;;;;;;15.70;7.28;;;;;;;23.82;26.77;95083.91;10525770;28;20028;-77
2021/01/02 10:41:51;;;;;;;14.87;8.33;;;;;;;24.81;25.52;95075.13;10507883;28;20055;-77
2021/01/02 10:46:53;;;;;;;17.17;8.63;;;;;;;24.76;25.73;95061.66;10524804;28;20040;-76
2021/01/02 10:51:54;;;;;;;13.63;6.90;;;;;;;25.06;24.82;95054.50;10524680;28;20032;-76
2021/01/02 10:56:55;;;;;;;10.82;6.35;;;;;;;24.01;25.22;95058.59;10524754;28;20035;-76
2021/01/02 11:01:56;;;;;;;15.30;6.67;;;;;;;23.33;26.09;95046.47;10525170;28;20035;-76
2021/01/02 11:06:56;;;;;;;17.23;7.38;;;;;;;22.16;27.73;95054.16;10523817;28;20028;-77
2021/01/02 11:11:57;;;;;;;14.20;7.13;;;;;;;22.26;27.46;95036.50;10506425;28;20042;-77
2021/01/02 11:16:57;;;;;;;16.93;7.37;;;;;;;23.37;26.72;95029.00;10505874;28;20031;-77
2021/01/02 11:22:00;;;;;;;19.15;8.77;;;;;;;23.07;26.73;95027.69;10523307;28;20298;-77
2021/01/02 11:27:01;;;;;;;14.82;8.55;;;;;;;23.34;26.40;95015.19;10525019;28;20155;-75
2021/01/02 11:32:09;;;;;;;17.40;8.15;;;;;;;24.60;25.44;95017.66;10524136;28;20028;-76
2021/01/02 11:37:11;;;;;;;13.60;6.72;;;;;;;24.65;25.23;95020.97;10505197;28;20040;-77
2021/01/02 11:42:14;;;;;;;14.18;7.00;;;;;;;25.28;24.50;95010.94;10505840;28;20020;-76
2021/01/02 11:47:14;;;;;;;9.52;5.68;;;;;;;25.47;23.91;95001.94;10523500;28;20024;-76
2021/01/02 11:52:15;;;;;;;11.75;6.10;;;;;;;25.78;23.60;95002.16;10503981;28;20810;-75
2021/01/02 11:57:15;;;;;;;12.67;5.60;;;;;;;26.04;23.34;94996.75;10522783;28;20038;-76
2021/01/02 12:02:16;;;;;;;13.30;6.67;;;;;;;22.41;26.27;95013.13;10523348;28;20032;-76
2021/01/02 12:07:16;;;;;;;11.47;6.67;;;;;;;19.52;30.50;95018.63;10523008;28;20030;-76
2021/01/02 12:12:16;;;;;;;14.98;7.97;;;;;;;16.13;35.37;95028.97;10523032;28;20050;-76
2021/01/02 12:17:17;;;;;;;9.57;5.77;;;;;;;13.75;40.52;95021.84;10522404;28;20032;-76
2021/01/02 12:22:17;;;;;;;14.00;6.17;;;;;;;12.04;44.83;95035.66;10523984;28;20054;-76
2021/01/02 12:27:18;;;;;;;11.43;7.07;;;;;;;11.24;47.73;95034.41;10530218;28;20289;-76
2021/01/02 12:32:20;;;;;;;13.17;6.57;;;;;;;10.50;52.58;95028.41;10530740;28;20028;-76
2021/01/02 12:37:20;;;;;;;12.93;6.10;;;;;;;9.89;54.83;95034.34;10511771;28;20564;-76
2021/01/02 12:42:21;;;;;;;9.30;5.30;;;;;;;9.48;58.57;95039.50;10511963;28;20019;-76
2021/01/02 12:47:21;;;;;;;13.65;6.63;;;;;;;9.46;61.47;95038.94;10530576;28;20479;-76
2021/01/02 12:52:21;;;;;;;14.03;6.53;;;;;;;9.48;60.17;95036.81;10530270;28;20028;-76
2021/01/02 12:57:23;;;;;;;13.53;6.37;;;;;;;9.38;63.39;95045.59;10511478;28;20266;-76
2021/01/02 13:02:24;;;;;;;10.50;5.80;;;;;;;9.40;60.96;95038.09;10530062;28;20027;-76
2021/01/02 13:07:24;;;;;;;9.98;4.97;;;;;;;9.29;61.16;95042.56;10529244;28;20032;-76
2021/01/02 13:12:25;;;;;;;13.00;6.27;;;;;;;9.17;62.91;95042.75;10509840;28;20028;-77
2021/01/02 13:17:25;;;;;;;13.68;5.25;;;;;;;9.05;63.92;95050.97;10511443;28;20131;-76
2021/01/02 13:22:26;;;;;;;8.07;5.17;;;;;;;8.97;63.81;95046.09;10510307;28;20135;-76
2021/01/02 13:27:26;;;;;;;13.90;6.13;;;;;;;8.69;62.33;95041.78;10528805;28;20285;-75
2021/01/02 13:32:26;;;;;;;6.83;4.13;;;;;;;8.66;64.51;95045.78;10528380;28;20035;-75
2021/01/02 13:37:27;;;;;;;14.85;5.50;;;;;;;8.51;66.30;95042.94;10510044;28;20035;-75
2021/01/02 13:42:27;;;;;;;8.73;5.25;;;;;;;8.32;69.17;95040.59;10528159;28;20028;-76
2021/01/02 13:47:29;;;;;;;12.03;5.60;;;;;;;8.28;71.10;95038.69;10528089;28;20035;-76
2021/01/02 13:52:29;;;;;;;9.38;5.07;;;;;;;8.22;70.35;95032.47;10528106;28;20293;-76
2021/01/02 13:57:30;;;;;;;16.30;5.67;;;;;;;8.33;70.34;95033.34;10509172;28;20036;-76
2021/01/02 14:02:30;;;;;;;9.97;5.23;;;;;;;8.10;71.50;95034.47;10526975;28;20293;-76
2021/01/02 14:07:30;;;;;;;11.77;5.77;;;;;;;8.14;70.79;95032.91;10526719;28;20502;-76
2021/01/02 14:12:31;;;;;;;14.67;7.03;;;;;;;8.15;70.80;95027.28;10527605;28;20081;-76
2021/01/02 14:17:31;;;;;;;8.50;4.57;;;;;;;8.23;70.07;95025.22;10526608;28;20336;-75
2021/01/02 14:22:31;;;;;;;15.23;5.07;;;;;;;8.22;70.57;95027.09;10484807;28;20048;-76
2021/01/02 14:27:32;;;;;;;8.57;4.63;;;;;;;8.14;67.71;95024.88;10484944;28;20115;-76
2021/01/02 14:32:32;;;;;;;17.87;6.07;;;;;;;8.07;67.14;95033.09;10484891;28;20102;-76
2021/01/02 14:37:33;;;;;;;16.37;5.67;;;;;;;7.97;69.37;95028.41;10484550;28;20032;-76
2021/01/02 14:42:33;;;;;;;16.70;6.93;;;;;;;7.92;67.66;95032.91;10484211;28;20274;-76
2021/01/02 14:47:34;;;;;;;23.07;9.10;;;;;;;7.79;74.20;95036.75;10483600;28;20029;-76
2021/01/02 14:52:34;;;;;;;16.07;7.33;;;;;;;7.48;65.80;95034.47;10465033;28;20082;-76
2021/01/02 14:57:34;;;;;;;30.07;13.10;;;;;;;7.34;74.58;95034.00;10465025;28;20032;-75
2021/01/02 15:02:35;;;;;;;29.17;11.73;;;;;;;6.95;81.51;95043.81;10484169;28;20119;-76
2021/01/02 15:07:35;;;;;;;27.65;12.30;;;;;;;6.95;81.29;95044.63;10483429;28;20028;-76
2021/01/02 15:12:36;;;;;;;40.80;15.23;;;;;;;6.77;85.92;95050.22;10464102;28;20500;-76
2021/01/02 15:17:41;;;;;;;19.50;9.95;;;;;;;6.62;87.01;95048.88;10482606;28;20935;-75
2021/01/02 15:22:41;;;;;;;14.77;6.80;;;;;;;6.52;85.05;95051.38;10523494;28;20059;-76
2021/01/02 15:27:41;;;;;;;11.30;5.57;;;;;;;6.52;86.16;95062.06;10493835;28;20123;-76
2021/01/02 15:32:42;;;;;;;12.10;5.60;;;;;;;6.44;89.42;95057.09;10490978;28;20362;-75
2021/01/02 15:37:42;;;;;;;12.02;5.47;;;;;;;6.25;92.97;95056.47;10506681;28;20035;-76
2021/01/02 15:42:43;;;;;;;18.40;8.32;;;;;;;6.16;92.03;95051.50;10505206;28;20020;-76
2021/01/02 15:47:44;;;;;;;13.60;6.38;;;;;;;5.86;93.53;95054.38;10506523;28;20032;-75
2021/01/02 15:52:44;;;;;;;9.80;5.57;;;;;;;5.63;95.42;95058.66;10505455;28;20373;-74
2021/01/02 15:57:44;;;;;;;11.07;4.90;;;;;;;5.46;95.72;95052.44;10524229;28;20027;-74
2021/01/02 16:02:45;;;;;;;8.07;4.87;;;;;;;5.43;96.18;95056.38;10528421;28;20522;-75
2021/01/02 16:07:45;;;;;;;9.40;4.60;;;;;;;5.39;93.11;95063.22;10529065;28;20057;-75
2021/01/02 16:12:45;;;;;;;13.53;5.70;;;;;;;5.25;90.36;95073.28;10529433;28;20023;-74
2021/01/02 16:17:46;;;;;;;12.73;6.17;;;;;;;5.27;90.55;95068.56;10529948;28;20028;-74
2021/01/02 16:22:46;;;;;;;29.00;9.40;;;;;;;5.33;89.64;95068.66;10519239;28;20347;-75
2021/01/02 16:27:47;;;;;;;26.05;10.43;;;;;;;5.37;89.02;95062.66;10526024;28;20032;-75
2021/01/02 16:32:47;;;;;;;32.23;10.60;;;;;;;5.37;89.04;95059.97;10505791;28;20020;-74
2021/01/02 16:37:48;;;;;;;25.83;12.80;;;;;;;5.38;89.46;95050.94;10531207;28;20273;-74
2021/01/02 16:42:48;;;;;;;14.05;6.85;;;;;;;5.35;90.71;95054.06;10511632;28;20066;-75
2021/01/02 16:47:48;;;;;;;13.43;4.90;;;;;;;5.24;91.36;95049.53;10529491;28;20027;-75
2021/01/02 16:52:49;;;;;;;21.30;7.07;;;;;;;5.13;95.27;95057.31;10529881;28;20024;-74
2021/01/02 16:57:51;;;;;;;12.98;6.60;;;;;;;4.94;100.00;95053.13;10529940;28;20281;-75
2021/01/02 17:02:51;;;;;;;13.95;6.47;;;;;;;4.69;100.00;95063.94;10529242;28;20111;-75
2021/01/02 17:07:51;;;;;;;15.37;6.33;;;;;;;4.64;100.00;95066.47;10528133;28;20032;-74
2021/01/02 17:12:52;;;;;;;16.42;7.72;;;;;;;4.56;100.00;95067.59;10527882;28;20059;-74
2021/01/02 17:17:52;;;;;;;19.88;8.38;;;;;;;4.49;100.00;95059.72;10529045;28;20154;-74
2021/01/02 17:22:53;;;;;;;21.90;7.63;;;;;;;4.45;100.00;95064.69;10529692;28;20024;-74
2021/01/02 17:27:53;;;;;;;18.57;8.33;;;;;;;4.43;100.00;95071.28;10527518;28;20277;-75
2021/01/02 17:32:53;;;;;;;26.13;9.70;;;;;;;4.40;100.00;95077.84;10526834;28;20072;-75
2021/01/02 17:37:54;;;;;;;23.80;9.50;;;;;;;4.21;100.00;95065.63;10526396;28;20542;-74
2021/01/02 17:42:54;;;;;;;22.80;9.87;;;;;;;4.20;100.00;95067.50;10526680;28;20032;-73
2021/01/02 17:47:54;;;;;;;26.27;10.33;;;;;;;4.13;100.00;95076.56;10526875;28;20031;-74
2021/01/02 17:52:55;;;;;;;22.73;10.60;;;;;;;4.05;100.00;95080.38;10525656;28;20080;-74
2021/01/02 17:57:55;;;;;;;15.37;7.43;;;;;;;3.82;100.00;95071.19;10508294;28;21171;-74
2021/01/02 18:02:55;;;;;;;11.53;6.13;;;;;;;3.74;100.00;95067.00;10527077;28;20296;-74
2021/01/02 18:07:56;;;;;;;11.67;6.73;;;;;;;3.75;100.00;95078.44;10521619;28;20289;-75
2021/01/02 18:12:56;;;;;;;11.87;5.40;;;;;;;3.83;100.00;95088.78;10504535;28;20282;-75
2021/01/02 18:17:56;;;;;;;8.07;3.57;;;;;;;3.89;100.00;95082.59;10521775;28;20336;-74
2021/01/02 18:22:57;;;;;;;6.53;3.90;;;;;;;3.90;100.00;95089.53;10520896;28;20078;-74
2021/01/02 18:27:58;;;;;;;9.80;4.43;;;;;;;3.89;100.00;95085.25;10524439;28;20270;-73
2021/01/02 18:32:58;;;;;;;8.20;4.82;;;;;;;3.96;100.00;95068.41;10500703;28;20085;-73
2021/01/02 18:37:59;;;;;;;9.27;3.60;;;;;;;3.97;100.00;95067.38;10487076;28;20064;-74
2021/01/02 18:42:59;;;;;;;10.20;5.07;;;;;;;4.00;100.00;95089.00;10494364;28;20289;-74
2021/01/02 18:48:00;;;;;;;9.60;4.82;;;;;;;3.87;100.00;95071.34;10483386;28;20270;-74
2021/01/02 18:53:00;;;;;;;17.27;6.05;;;;;;;3.78;100.00;95059.38;10508306;28;20080;-74
2021/01/02 18:58:00;;;;;;;12.45;6.13;;;;;;;3.53;100.00;95060.28;10519520;28;20023;-74
2021/01/02 19:03:01;;;;;;;11.57;5.95;;;;;;;3.58;100.00;95068.41;10521066;28;20823;-74
2021/01/02 19:08:01;;;;;;;16.77;6.57;;;;;;;3.45;100.00;95063.25;10517810;28;20475;-74
2021/01/02 19:13:02;;;;;;;13.55;7.30;;;;;;;3.40;100.00;95047.13;10516515;28;21357;-74
2021/01/02 19:18:03;;;;;;;17.93;7.13;;;;;;;3.39;100.00;95042.84;10501265;28;20052;-75
2021/01/02 19:23:03;;;;;;;16.17;7.20;;;;;;;3.29;100.00;95045.22;10518925;28;20897;-74
2021/01/02 19:28:04;;;;;;;15.20;7.67;;;;;;;3.21;100.00;95039.16;10519830;28;20032;-74
2021/01/02 19:33:04;;;;;;;17.80;7.53;;;;;;;3.17;100.00;95035.31;10504259;28;20024;-75
2021/01/02 19:38:05;;;;;;;16.25;7.43;;;;;;;3.14;100.00;95042.88;10499236;28;20060;-75
2021/01/02 19:43:05;;;;;;;19.07;8.07;;;;;;;3.02;100.00;95040.94;10503458;28;20025;-75
2021/01/02 19:48:06;;;;;;;17.37;7.50;;;;;;;3.05;100.00;95039.72;10480646;28;20029;-76
2021/01/02 19:53:07;;;;;;;15.43;8.30;;;;;;;3.12;100.00;95045.75;10481812;28;20038;-73
2021/01/02 19:58:07;;;;;;;14.90;9.00;;;;;;;3.09;100.00;95035.59;10474736;28;20028;-73
2021/01/02 20:03:07;;;;;;;14.53;6.87;;;;;;;3.14;100.00;95034.91;10465166;28;20267;-73
2021/01/02 20:08:08;;;;;;;10.10;6.00;;;;;;;3.19;100.00;95035.88;10517652;28;20294;-74
2021/01/02 20:13:08;;;;;;;11.67;7.00;;;;;;;3.12;100.00;95044.97;10496073;28;20286;-73
2021/01/02 20:18:09;;;;;;;10.23;5.22;;;;;;;3.10;100.00;95034.56;10487615;28;20301;-73
2021/01/02 20:23:09;;;;;;;11.50;6.55;;;;;;;3.04;100.00;95044.22;10481313;28;20033;-74
2021/01/02 20:28:10;;;;;;;13.60;6.85;;;;;;;2.84;100.00;95052.34;10480452;28;20461;-73
2021/01/02 20:33:13;;;;;;;15.63;8.07;;;;;;;2.77;100.00;95053.44;10481127;28;20142;-74
2021/01/02 20:38:13;;;;;;;16.73;8.07;;;;;;;2.62;100.00;95051.09;10480936;28;20661;-74
2021/01/02 20:43:14;;;;;;;14.48;7.70;;;;;;;2.67;100.00;95046.75;10510831;28;20031;-74
2021/01/02 20:48:14;;;;;;;13.33;7.87;;;;;;;2.68;100.00;95039.59;10529902;28;20032;-74
2021/01/02 20:53:14;;;;;;;14.07;7.90;;;;;;;2.59;100.00;95031.09;10529292;28;20099;-74
2021/01/02 20:58:15;;;;;;;16.63;7.83;;;;;;;2.66;100.00;95033.69;10526824;28;20459;-76
2021/01/02 21:03:15;;;;;;;15.90;8.17;;;;;;;2.76;100.00;95019.94;10486475;28;20278;-75
2021/01/02 21:08:15;;;;;;;12.77;7.30;;;;;;;2.83;100.00;95029.50;10525532;28;20028;-76
2021/01/02 21:13:16;;;;;;;13.88;7.03;;;;;;;2.85;100.00;95019.47;10505698;28;20086;-75
2021/01/02 21:18:16;;;;;;;11.13;7.87;;;;;;;2.94;100.00;95025.28;10486042;28;20098;-76
2021/01/02 21:23:17;;;;;;;18.40;8.87;;;;;;;2.97;100.00;95022.19;10468590;28;20785;-75
2021/01/02 21:28:17;;;;;;;18.02;8.60;;;;;;;3.07;100.00;95019.06;10496230;28;20281;-75
2021/01/02 21:33:18;;;;;;;17.63;8.43;;;;;;;3.11;100.00;95011.47;10522884;28;20042;-75
2021/01/02 21:38:18;;;;;;;15.33;8.17;;;;;;;3.04;100.00;95014.19;10503545;28;20344;-75
2021/01/02 21:43:18;;;;;;;16.80;8.68;;;;;;;3.05;100.00;95010.50;10467918;28;20017;-73
2021/01/02 21:48:19;;;;;;;20.17;8.88;;;;;;;2.87;100.00;94990.84;10468153;28;20032;-73
2021/01/02 21:53:19;;;;;;;20.63;9.93;;;;;;;2.91;100.00;95005.31;10484125;28;20024;-74
2021/01/02 21:58:19;;;;;;;18.53;10.00;;;;;;;2.93;100.00;94999.81;10484399;28;20032;-74
2021/01/02 22:03:20;;;;;;;26.07;12.60;;;;;;;3.03;100.00;94992.13;10503203;28;20110;-74
2021/01/02 22:08:20;;;;;;;29.70;14.57;;;;;;;3.09;100.00;94982.47;10547549;28;20292;-74
2021/01/02 22:13:20;;;;;;;29.55;14.23;;;;;;;3.14;100.00;94982.63;10560109;28;20039;-74
2021/01/02 22:18:21;;;;;;;34.43;14.10;;;;;;;3.24;100.00;94964.34;10551003;28;20536;-74
2021/01/02 22:23:21;;;;;;;24.03;11.97;;;;;;;3.37;100.00;94971.34;10568981;28;20049;-74
2021/01/02 22:28:22;;;;;;;28.43;13.47;;;;;;;3.44;100.00;94957.19;10569101;28;20028;-74
2021/01/02 22:33:22;;;;;;;28.73;13.50;;;;;;;3.47;100.00;94954.88;10568448;28;20031;-74
2021/01/02 22:38:22;;;;;;;30.27;14.05;;;;;;;3.48;100.00;94969.00;10562328;28;20668;-74
2021/01/02 22:43:23;;;;;;;31.73;13.55;;;;;;;3.44;100.00;94957.97;10526307;28;20020;-74
2021/01/02 22:48:24;;;;;;;26.90;12.98;;;;;;;3.45;100.00;94949.00;10528703;28;20049;-75
2021/01/02 22:53:25;;;;;;;27.27;14.18;;;;;;;3.43;100.00;94951.03;10534613;28;20020;-78
2021/01/02 22:58:26;;;;;;;28.40;14.15;;;;;;;3.38;100.00;94954.38;10506841;28;20768;-74
2021/01/02 23:03:26;;;;;;;30.70;14.73;;;;;;;3.49;100.00;94946.69;10507344;28;20043;-74
2021/01/02 23:08:26;;;;;;;32.47;15.33;;;;;;;3.40;100.00;94925.75;10497939;28;20028;-74